createdAt,value
2023-03-07T00:00:24.909Z,14.60
2023-03-07T00:00:57.265Z,16.48
2023-03-07T00:01:31.813Z,15.40
2023-03-07T00:02:06.570Z,16.20
2023-03-07T00:02:38.804Z,17.30
2023-03-07T00:03:12.445Z,16.08
2023-03-07T00:03:47.691Z,16.27
2023-03-07T00:04:19.771Z,15.98
2023-03-07T00:04:51.894Z,16.48
2023-03-07T00:05:29.592Z,16.33
2023-03-07T00:06:03.011Z,15.50
2023-03-07T00:06:35.100Z,16.55
2023-03-07T00:07:11.026Z,16.70
2023-03-07T00:07:43.119Z,16.70
2023-03-07T00:08:15.209Z,16.48
2023-03-07T00:08:52.801Z,16.05
2023-03-07T00:09:25.313Z,16.55
2023-03-07T00:09:57.634Z,16.70
2023-03-07T00:10:29.726Z,16.33
2023-03-07T00:11:05.538Z,17.10
2023-03-07T00:11:37.776Z,16.27
2023-03-07T00:12:10.969Z,15.65
2023-03-07T00:12:45.663Z,15.52
2023-03-07T00:13:17.745Z,16.85
2023-03-07T00:13:49.876Z,15.68
2023-03-07T00:14:24.628Z,16.33
2023-03-07T00:14:56.726Z,15.55
2023-03-07T00:15:28.885Z,15.57
2023-03-07T00:16:05.238Z,16.52
2023-03-07T00:16:37.651Z,17.48
2023-03-07T00:17:10.044Z,15.23
2023-03-07T00:17:44.722Z,16.77
2023-03-07T00:18:16.837Z,15.30
2023-03-07T00:18:51.669Z,15.18
2023-03-07T00:19:23.844Z,16.30
2023-03-07T00:19:58.792Z,16.58
2023-03-07T00:20:33.629Z,17.00
2023-03-07T00:21:10.946Z,15.68
2023-03-07T00:21:43.020Z,16.85
2023-03-07T00:22:15.423Z,15.43
2023-03-07T00:22:50.184Z,17.27
2023-03-07T00:23:22.275Z,16.08
2023-03-07T00:23:54.350Z,15.93
2023-03-07T00:24:28.990Z,16.38
2023-03-07T00:25:01.425Z,16.77
2023-03-07T00:25:33.929Z,16.27
2023-03-07T00:26:11.190Z,19.13
2023-03-07T00:26:44.737Z,16.77
2023-03-07T00:27:16.823Z,16.85
2023-03-07T00:27:51.525Z,16.58
2023-03-07T00:28:23.812Z,17.85
2023-03-07T00:28:57.094Z,15.98
2023-03-07T00:29:32.136Z,17.17
2023-03-07T00:30:05.399Z,15.98
2023-03-07T00:30:37.795Z,17.85
2023-03-07T00:31:14.119Z,16.92
2023-03-07T00:31:46.302Z,15.73
2023-03-07T00:32:19.434Z,16.90
2023-03-07T00:32:54.150Z,17.25
2023-03-07T00:33:26.275Z,15.93
2023-03-07T00:33:58.393Z,16.67
2023-03-07T00:34:33.160Z,16.73
2023-03-07T00:35:06.313Z,16.48
2023-03-07T00:35:41.115Z,16.67
2023-03-07T00:36:17.992Z,17.42
2023-03-07T00:36:50.187Z,16.90
2023-03-07T00:37:22.899Z,15.98
2023-03-07T00:37:57.572Z,15.93
2023-03-07T00:38:31.522Z,17.27
2023-03-07T00:39:05.892Z,16.55
2023-03-07T00:39:40.713Z,18.75
2023-03-07T00:40:13.495Z,16.85
2023-03-07T00:40:45.573Z,16.85
2023-03-07T00:41:19.288Z,16.70
2023-03-07T00:41:54.011Z,17.27
2023-03-07T00:42:26.175Z,16.45
2023-03-07T00:42:58.305Z,15.85
2023-03-07T00:43:34.073Z,16.75
2023-03-07T00:44:06.220Z,15.63
2023-03-07T00:44:40.928Z,15.30
2023-03-07T00:45:13.757Z,15.43
2023-03-07T00:45:45.964Z,16.58
2023-03-07T00:46:22.426Z,15.02
2023-03-07T00:46:54.638Z,15.13
2023-03-07T00:47:27.410Z,16.33
2023-03-07T00:48:02.200Z,14.73
2023-03-07T00:48:35.427Z,17.65
2023-03-07T00:49:07.635Z,16.90
2023-03-07T00:49:42.544Z,16.38
2023-03-07T00:50:14.943Z,17.27
2023-03-07T00:50:49.985Z,16.48
2023-03-07T00:51:26.567Z,16.50
2023-03-07T00:51:58.841Z,15.50
2023-03-07T00:52:30.946Z,16.92
2023-03-07T00:53:05.779Z,18.08
2023-03-07T00:53:38.192Z,18.08
2023-03-07T00:54:10.324Z,17.02
2023-03-07T00:54:45.028Z,17.58
2023-03-07T00:55:17.737Z,17.42
2023-03-07T00:55:58.090Z,16.48
2023-03-07T00:56:33.232Z,15.98
2023-03-07T00:57:05.540Z,16.08
2023-03-07T00:57:37.696Z,18.35
2023-03-07T00:58:09.815Z,16.75
2023-03-07T00:58:44.916Z,17.25
2023-03-07T00:59:17.155Z,18.50
2023-03-07T00:59:49.275Z,18.13
2023-03-07T01:00:24.253Z,18.02
2023-03-07T01:00:57.357Z,18.60
2023-03-07T01:01:32.338Z,18.92
2023-03-07T01:02:04.551Z,18.15
2023-03-07T01:02:36.758Z,19.88
2023-03-07T01:03:11.610Z,20.25
2023-03-07T01:03:44.200Z,20.48
2023-03-07T01:04:18.907Z,19.17
2023-03-07T01:04:51.083Z,18.65
2023-03-07T01:05:23.187Z,20.15
2023-03-07T01:06:05.668Z,19.27
2023-03-07T01:06:37.969Z,19.77
2023-03-07T01:07:10.056Z,16.00
2023-03-07T01:07:47.621Z,17.35
2023-03-07T01:08:20.685Z,19.27
2023-03-07T01:08:58.312Z,20.63
2023-03-07T01:09:31.381Z,21.52
2023-03-07T01:10:03.820Z,16.90
2023-03-07T01:10:38.614Z,17.83
2023-03-07T01:11:11.954Z,16.25
2023-03-07T01:11:44.077Z,16.95
2023-03-07T01:12:19.298Z,17.60
2023-03-07T01:12:51.713Z,15.52
2023-03-07T01:13:24.012Z,18.17
2023-03-07T01:13:59.292Z,16.55
2023-03-07T01:14:31.517Z,17.02
2023-03-07T01:15:06.609Z,14.90
2023-03-07T01:15:41.940Z,15.68
2023-03-07T01:16:17.658Z,16.75
2023-03-07T01:16:52.410Z,17.33
2023-03-07T01:17:24.805Z,16.17
2023-03-07T01:17:57.107Z,17.42
2023-03-07T01:18:31.939Z,17.48
2023-03-07T01:19:06.846Z,16.33
2023-03-07T01:19:39.153Z,17.10
2023-03-07T01:20:15.031Z,15.98
2023-03-07T01:20:49.317Z,19.25
2023-03-07T01:21:26.090Z,17.70
2023-03-07T01:22:01.225Z,15.50
2023-03-07T01:22:33.440Z,18.58
2023-03-07T01:23:06.495Z,17.33
2023-03-07T01:23:38.621Z,16.25
2023-03-07T01:24:18.314Z,18.27
2023-03-07T01:24:50.600Z,16.98
2023-03-07T01:25:22.734Z,17.95
2023-03-07T01:25:57.643Z,17.48
2023-03-07T01:26:32.048Z,15.75
2023-03-07T01:27:08.073Z,15.98
2023-03-07T01:27:40.908Z,16.40
2023-03-07T01:28:13.944Z,16.70
2023-03-07T01:28:49.145Z,17.30
2023-03-07T01:29:21.308Z,16.23
2023-03-07T01:29:53.389Z,15.52
2023-03-07T01:30:28.449Z,16.83
2023-03-07T01:31:00.870Z,15.63
2023-03-07T01:31:33.465Z,16.33
2023-03-07T01:32:09.309Z,17.17
2023-03-07T01:32:41.543Z,18.98
2023-03-07T01:33:13.780Z,15.60
2023-03-07T01:33:50.299Z,16.50
2023-03-07T01:34:23.285Z,16.25
2023-03-07T01:34:57.068Z,16.25
2023-03-07T01:35:32.287Z,17.45
2023-03-07T01:36:05.577Z,17.13
2023-03-07T01:36:42.966Z,15.85
2023-03-07T01:37:15.125Z,17.27
2023-03-07T01:37:48.810Z,17.13
2023-03-07T01:38:23.499Z,15.05
2023-03-07T01:38:58.212Z,16.80
2023-03-07T01:39:30.304Z,17.15
2023-03-07T01:40:10.649Z,15.40
2023-03-07T01:40:42.905Z,15.50
2023-03-07T01:41:15.991Z,16.55
2023-03-07T01:41:51.651Z,16.60
2023-03-07T01:42:31.329Z,16.50
2023-03-07T01:43:23.330Z,17.52
2023-03-07T01:44:02.484Z,15.20
2023-03-07T01:44:59.727Z,15.85
2023-03-07T01:46:09.716Z,15.48
2023-03-07T01:46:45.359Z,15.63
2023-03-07T01:47:20.900Z,17.25
2023-03-07T01:47:57.301Z,16.20
2023-03-07T01:48:29.537Z,16.52
2023-03-07T01:49:07.538Z,17.65
2023-03-07T01:49:46.282Z,16.33
2023-03-07T01:50:19.594Z,15.50
2023-03-07T01:50:52.145Z,15.55
2023-03-07T01:51:25.351Z,16.45
2023-03-07T01:52:08.332Z,14.75
2023-03-07T01:52:45.997Z,15.98
2023-03-07T01:53:18.352Z,15.63
2023-03-07T01:53:53.599Z,14.63
2023-03-07T01:54:29.196Z,16.10
2023-03-07T01:55:05.955Z,17.02
2023-03-07T01:55:38.740Z,16.40
2023-03-07T01:56:24.621Z,15.60
2023-03-07T01:56:59.051Z,17.50
2023-03-07T01:57:34.510Z,16.20
2023-03-07T01:58:11.647Z,15.07
2023-03-07T01:58:46.047Z,15.07
2023-03-07T01:59:24.242Z,17.63
2023-03-07T02:00:05.724Z,15.27
2023-03-07T02:00:45.705Z,15.18
2023-03-07T02:01:18.203Z,16.30
2023-03-07T02:01:54.014Z,16.80
2023-03-07T02:02:27.506Z,14.85
2023-03-07T02:03:07.887Z,17.27
2023-03-07T02:03:49.749Z,17.38
2023-03-07T02:04:28.768Z,16.35
2023-03-07T02:05:09.936Z,16.13
2023-03-07T02:05:48.047Z,15.50
2023-03-07T02:06:21.017Z,14.68
2023-03-07T02:06:55.759Z,15.82
2023-03-07T02:07:35.307Z,17.35
2023-03-07T02:08:09.957Z,15.80
2023-03-07T02:08:46.938Z,15.75
2023-03-07T02:09:22.700Z,16.67
2023-03-07T02:09:59.555Z,15.70
2023-03-07T02:10:34.096Z,16.48
2023-03-07T02:11:07.552Z,17.15
2023-03-07T02:11:44.473Z,15.90
2023-03-07T02:12:17.041Z,17.40
2023-03-07T02:12:50.931Z,17.00
2023-03-07T02:13:26.804Z,15.20
2023-03-07T02:13:58.896Z,15.05
2023-03-07T02:14:31.005Z,16.88
2023-03-07T02:15:06.916Z,16.55
2023-03-07T02:15:39.971Z,15.93
2023-03-07T02:16:12.516Z,15.30
2023-03-07T02:16:47.990Z,16.05
2023-03-07T02:17:20.417Z,15.52
2023-03-07T02:17:53.711Z,14.82
2023-03-07T02:18:31.401Z,15.88
2023-03-07T02:19:09.888Z,16.20
2023-03-07T02:19:56.746Z,15.40
2023-03-07T02:20:36.866Z,15.38
2023-03-07T02:21:17.279Z,15.70
2023-03-07T02:22:02.145Z,14.60
2023-03-07T02:22:36.990Z,14.98
2023-03-07T02:23:13.975Z,15.68
2023-03-07T02:23:56.978Z,15.70
2023-03-07T02:24:37.227Z,15.75
2023-03-07T02:25:20.021Z,14.80
2023-03-07T02:26:01.290Z,14.10
2023-03-07T02:26:44.767Z,14.73
2023-03-07T02:27:19.659Z,15.57
2023-03-07T02:27:54.229Z,13.27
2023-03-07T02:28:27.661Z,16.38
2023-03-07T02:29:04.130Z,14.93
2023-03-07T02:29:37.636Z,16.33
2023-03-07T02:30:11.300Z,14.90
2023-03-07T02:30:56.610Z,16.15
2023-03-07T02:31:30.325Z,15.80
2023-03-07T02:32:02.949Z,15.27
2023-03-07T02:32:37.850Z,15.32
2023-03-07T02:33:10.281Z,15.07
2023-03-07T02:33:42.380Z,15.90
2023-03-07T02:34:21.362Z,14.70
2023-03-07T02:34:58.311Z,15.52
2023-03-07T02:35:30.775Z,17.05
2023-03-07T02:36:11.242Z,15.55
2023-03-07T02:36:50.525Z,15.38
2023-03-07T02:37:34.300Z,15.07
2023-03-07T02:38:07.652Z,14.18
2023-03-07T02:38:44.202Z,15.88
2023-03-07T02:39:21.612Z,15.68
2023-03-07T02:39:56.848Z,16.08
2023-03-07T02:40:31.994Z,15.93
2023-03-07T02:41:08.836Z,15.75
2023-03-07T02:41:41.444Z,15.25
2023-03-07T02:42:29.887Z,15.40
2023-03-07T02:43:12.867Z,14.32
2023-03-07T02:43:45.509Z,16.70
2023-03-07T02:44:20.203Z,14.73
2023-03-07T02:44:57.043Z,14.95
2023-03-07T02:45:32.310Z,15.98
2023-03-07T02:46:04.596Z,14.85
2023-03-07T02:46:37.344Z,15.68
2023-03-07T02:47:12.203Z,13.98
2023-03-07T02:47:45.517Z,15.35
2023-03-07T02:48:20.359Z,14.82
2023-03-07T02:48:55.040Z,14.70
2023-03-07T02:49:27.592Z,16.40
2023-03-07T02:50:02.463Z,14.90
2023-03-07T02:50:35.515Z,14.57
2023-03-07T02:51:07.759Z,14.88
2023-03-07T02:51:43.213Z,13.93
2023-03-07T02:52:15.674Z,13.88
2023-03-07T02:52:47.928Z,14.38
2023-03-07T02:53:22.754Z,15.32
2023-03-07T02:53:55.094Z,14.52
2023-03-07T02:54:27.390Z,14.70
2023-03-07T02:55:02.227Z,14.68
2023-03-07T02:55:38.005Z,15.95
2023-03-07T02:56:11.447Z,15.85
2023-03-07T02:56:46.437Z,15.07
2023-03-07T02:57:19.973Z,15.32
2023-03-07T02:57:57.511Z,14.93
2023-03-07T02:58:29.938Z,15.05
2023-03-07T02:59:02.056Z,14.60
2023-03-07T02:59:37.207Z,15.45
2023-03-07T03:00:12.615Z,14.95
2023-03-07T03:00:47.536Z,15.57
2023-03-07T03:01:20.098Z,16.23
2023-03-07T03:01:52.500Z,15.73
2023-03-07T03:02:24.627Z,15.68
2023-03-07T03:02:59.837Z,15.85
2023-03-07T03:03:32.096Z,15.95
2023-03-07T03:04:05.075Z,15.70
2023-03-07T03:04:40.445Z,16.15
2023-03-07T03:05:12.866Z,15.63
2023-03-07T03:05:44.955Z,15.45
2023-03-07T03:06:20.531Z,17.65
2023-03-07T03:06:52.760Z,16.10
2023-03-07T03:07:24.906Z,17.83
2023-03-07T03:07:59.635Z,14.63
2023-03-07T03:08:31.992Z,16.15
2023-03-07T03:09:04.426Z,14.18
2023-03-07T03:09:39.179Z,16.17
2023-03-07T03:10:11.892Z,15.98
2023-03-07T03:10:44.091Z,16.20
2023-03-07T03:11:20.611Z,14.88
2023-03-07T03:11:53.042Z,15.25
2023-03-07T03:12:30.816Z,14.90
2023-03-07T03:13:05.880Z,15.85
2023-03-07T03:13:39.068Z,15.93
2023-03-07T03:14:15.147Z,16.35
2023-03-07T03:14:47.422Z,14.75
2023-03-07T03:15:19.621Z,18.90
2023-03-07T03:15:58.390Z,13.95
2023-03-07T03:16:30.621Z,16.55
2023-03-07T03:17:03.961Z,16.92
2023-03-07T03:17:39.770Z,15.90
2023-03-07T03:18:12.030Z,15.48
2023-03-07T03:18:44.136Z,16.23
2023-03-07T03:19:32.959Z,15.68
2023-03-07T03:20:25.512Z,16.23
2023-03-07T03:22:13.981Z,15.57
2023-03-07T03:22:51.912Z,14.65
2023-03-07T03:23:26.597Z,16.67
2023-03-07T03:24:01.406Z,15.52
2023-03-07T03:24:33.563Z,17.65
2023-03-07T03:25:08.616Z,15.30
2023-03-07T03:25:42.945Z,16.75
2023-03-07T03:26:17.604Z,16.52
2023-03-07T03:26:49.838Z,14.68
2023-03-07T03:27:23.665Z,16.65
2023-03-07T03:27:59.647Z,16.75
2023-03-07T03:28:36.415Z,16.10
2023-03-07T03:29:08.717Z,15.82
2023-03-07T03:29:43.580Z,17.35
2023-03-07T03:30:16.539Z,18.60
2023-03-07T03:30:57.474Z,15.23
2023-03-07T03:31:33.009Z,16.67
2023-03-07T03:32:07.862Z,15.85
2023-03-07T03:32:43.790Z,15.05
2023-03-07T03:33:18.689Z,15.35
2023-03-07T03:33:55.700Z,15.52
2023-03-07T03:34:28.114Z,15.38
2023-03-07T03:35:00.816Z,14.80
2023-03-07T03:35:36.073Z,17.73
2023-03-07T03:36:11.349Z,14.90
2023-03-07T03:36:43.652Z,16.42
2023-03-07T03:37:18.520Z,17.73
2023-03-07T03:37:50.754Z,15.00
2023-03-07T03:38:23.050Z,16.05
2023-03-07T03:38:59.794Z,18.58
2023-03-07T03:39:32.431Z,15.93
2023-03-07T03:40:14.870Z,15.18
2023-03-07T03:40:51.025Z,16.48
2023-03-07T03:41:25.228Z,13.98
2023-03-07T03:41:58.383Z,16.25
2023-03-07T03:42:33.090Z,16.60
2023-03-07T03:43:06.896Z,16.05
2023-03-07T03:43:41.733Z,17.58
2023-03-07T03:44:17.301Z,15.57
2023-03-07T03:44:49.907Z,16.23
2023-03-07T03:45:22.242Z,15.77
2023-03-07T03:45:58.693Z,16.08
2023-03-07T03:46:32.750Z,16.58
2023-03-07T03:47:05.919Z,17.08
2023-03-07T03:47:40.781Z,17.17
2023-03-07T03:48:13.086Z,15.30
2023-03-07T03:48:46.028Z,16.45
2023-03-07T03:49:20.879Z,15.13
2023-03-07T03:49:55.540Z,14.82
2023-03-07T03:50:27.708Z,17.15
2023-03-07T03:51:07.336Z,17.35
2023-03-07T03:51:39.647Z,18.10
2023-03-07T03:52:11.746Z,16.67
2023-03-07T03:52:46.710Z,18.63
2023-03-07T03:53:19.002Z,15.32
2023-03-07T03:53:51.526Z,16.65
2023-03-07T03:54:26.252Z,15.88
2023-03-07T03:54:58.320Z,16.33
2023-03-07T03:55:31.293Z,17.15
2023-03-07T03:56:07.215Z,16.75
2023-03-07T03:56:39.357Z,18.10
2023-03-07T03:57:15.925Z,16.98
2023-03-07T03:57:50.607Z,15.98
2023-03-07T03:58:25.763Z,17.00
2023-03-07T03:59:03.141Z,16.23
2023-03-07T03:59:35.279Z,14.93
2023-03-07T04:00:09.363Z,15.85
2023-03-07T04:00:45.062Z,15.02
2023-03-07T04:01:22.400Z,15.20
2023-03-07T04:01:55.473Z,16.80
2023-03-07T04:02:30.760Z,15.68
2023-03-07T04:03:07.101Z,17.05
2023-03-07T04:03:41.244Z,14.65
2023-03-07T04:04:13.442Z,16.23
2023-03-07T04:04:48.141Z,17.45
2023-03-07T04:05:20.414Z,16.77
2023-03-07T04:05:53.651Z,15.35
2023-03-07T04:06:31.051Z,15.25
2023-03-07T04:07:04.852Z,15.13
2023-03-07T04:07:38.027Z,17.02
2023-03-07T04:08:13.678Z,15.40
2023-03-07T04:08:46.874Z,16.00
2023-03-07T04:09:19.028Z,16.35
2023-03-07T04:09:55.550Z,15.68
2023-03-07T04:10:27.980Z,15.45
2023-03-07T04:11:00.381Z,14.48
2023-03-07T04:11:35.613Z,16.00
2023-03-07T04:12:08.552Z,16.20
2023-03-07T04:12:41.145Z,16.35
2023-03-07T04:13:16.303Z,16.88
2023-03-07T04:13:48.823Z,16.50
2023-03-07T04:14:23.888Z,16.52
2023-03-07T04:14:59.470Z,16.15
2023-03-07T04:15:31.837Z,16.45
2023-03-07T04:16:05.253Z,17.33
2023-03-07T04:16:40.176Z,16.63
2023-03-07T04:17:12.516Z,18.05
2023-03-07T04:17:44.721Z,17.02
2023-03-07T04:18:19.621Z,16.20
2023-03-07T04:18:52.539Z,15.93
2023-03-07T04:19:24.700Z,17.05
2023-03-07T04:19:59.585Z,16.40
2023-03-07T04:20:32.014Z,15.57
2023-03-07T04:21:06.379Z,17.08
2023-03-07T04:21:42.856Z,16.85
2023-03-07T04:22:15.292Z,16.15
2023-03-07T04:22:47.668Z,18.00
2023-03-07T04:23:21.106Z,16.65
2023-03-07T04:23:58.551Z,16.85
2023-03-07T04:24:34.218Z,17.55
2023-03-07T04:25:09.430Z,15.57
2023-03-07T04:25:49.355Z,16.33
2023-03-07T04:26:22.145Z,16.40
2023-03-07T04:26:54.462Z,16.02
2023-03-07T04:27:29.762Z,15.52
2023-03-07T04:28:02.351Z,14.55
2023-03-07T04:28:43.926Z,16.45
2023-03-07T04:29:21.842Z,16.77
2023-03-07T04:30:05.760Z,15.23
2023-03-07T04:30:38.095Z,16.88
2023-03-07T04:31:12.953Z,15.32
2023-03-07T04:31:45.113Z,17.45
2023-03-07T04:32:20.152Z,15.48
2023-03-07T04:32:53.764Z,14.73
2023-03-07T04:33:27.517Z,15.35
2023-03-07T04:34:02.186Z,15.48
2023-03-07T04:34:34.780Z,17.05
2023-03-07T04:35:07.621Z,17.27
2023-03-07T04:35:42.459Z,15.70
2023-03-07T04:36:19.041Z,16.75
2023-03-07T04:36:51.397Z,17.92
2023-03-07T04:37:24.050Z,15.82
2023-03-07T04:37:58.739Z,16.73
2023-03-07T04:38:31.072Z,16.80
2023-03-07T04:39:03.598Z,15.90
2023-03-07T04:39:38.981Z,16.88
2023-03-07T04:40:13.996Z,17.92
2023-03-07T04:40:46.073Z,15.55
2023-03-07T04:41:23.137Z,15.27
2023-03-07T04:41:59.569Z,17.55
2023-03-07T04:42:35.515Z,15.63
2023-03-07T04:43:10.257Z,14.23
2023-03-07T04:43:43.082Z,15.35
2023-03-07T04:44:16.516Z,14.98
2023-03-07T04:44:51.159Z,17.08
2023-03-07T04:45:26.272Z,14.52
2023-03-07T04:45:58.533Z,16.10
2023-03-07T04:46:33.218Z,15.82
2023-03-07T04:47:06.565Z,16.70
2023-03-07T04:47:40.894Z,14.20
2023-03-07T04:48:15.613Z,15.93
2023-03-07T04:48:50.094Z,15.68
2023-03-07T04:49:22.314Z,14.40
2023-03-07T04:49:57.044Z,14.90
2023-03-07T04:50:29.794Z,15.20
2023-03-07T04:51:02.056Z,14.90
2023-03-07T04:51:36.853Z,15.43
2023-03-07T04:52:10.168Z,14.52
2023-03-07T04:52:42.369Z,15.30
2023-03-07T04:53:17.230Z,15.48
2023-03-07T04:53:49.571Z,14.02
2023-03-07T04:54:21.888Z,13.57
2023-03-07T04:54:57.796Z,14.23
2023-03-07T04:55:30.084Z,15.60
2023-03-07T04:56:04.379Z,16.38
2023-03-07T04:56:39.716Z,16.92
2023-03-07T04:57:12.046Z,14.07
2023-03-07T04:57:44.431Z,16.60
2023-03-07T04:58:21.055Z,15.23
2023-03-07T04:58:53.294Z,14.63
2023-03-07T04:59:25.357Z,14.57
2023-03-07T04:59:57.612Z,14.95
2023-03-07T05:00:34.901Z,15.70
2023-03-07T05:01:07.170Z,16.10
2023-03-07T05:01:40.078Z,16.30
2023-03-07T05:02:16.280Z,18.05
2023-03-07T05:02:49.820Z,14.55
2023-03-07T05:03:23.905Z,16.20
2023-03-07T05:03:58.853Z,14.73
2023-03-07T05:04:31.508Z,14.52
2023-03-07T05:05:04.406Z,14.38
2023-03-07T05:05:39.825Z,15.32
2023-03-07T05:06:15.199Z,15.05
2023-03-07T05:06:54.077Z,15.40
2023-03-07T05:07:26.202Z,14.30
2023-03-07T05:07:58.302Z,15.27
2023-03-07T05:08:33.638Z,15.38
2023-03-07T05:09:06.194Z,19.77
2023-03-07T05:09:38.706Z,14.13
2023-03-07T05:10:14.927Z,17.05
2023-03-07T05:10:47.099Z,14.48
2023-03-07T05:11:19.433Z,15.35
2023-03-07T05:11:54.203Z,15.10
2023-03-07T05:12:26.736Z,14.85
2023-03-07T05:13:00.229Z,14.63
2023-03-07T05:13:35.217Z,15.63
2023-03-07T05:14:07.707Z,14.85
2023-03-07T05:14:39.812Z,14.15
2023-03-07T05:15:14.653Z,14.70
2023-03-07T05:15:53.970Z,15.27
2023-03-07T05:16:30.167Z,15.07
2023-03-07T05:17:02.329Z,14.32
2023-03-07T05:17:35.018Z,13.07
2023-03-07T05:18:09.787Z,15.20
2023-03-07T05:18:41.985Z,14.88
2023-03-07T05:19:14.335Z,15.52
2023-03-07T05:19:49.059Z,14.52
2023-03-07T05:20:22.077Z,17.95
2023-03-07T05:20:54.274Z,15.80
2023-03-07T05:21:29.108Z,14.43
2023-03-07T05:22:01.279Z,15.32
2023-03-07T05:22:34.257Z,16.00
2023-03-07T05:23:06.440Z,16.20
2023-03-07T05:23:41.280Z,15.18
2023-03-07T05:24:15.653Z,17.40
2023-03-07T05:24:48.087Z,15.63
2023-03-07T05:25:20.188Z,15.88
2023-03-07T05:25:54.917Z,16.38
2023-03-07T05:26:27.208Z,15.90
2023-03-07T05:26:59.400Z,15.25
2023-03-07T05:27:34.182Z,15.07
2023-03-07T05:28:06.543Z,14.77
2023-03-07T05:28:41.429Z,14.40
2023-03-07T05:29:13.634Z,13.82
2023-03-07T05:29:45.848Z,14.43
2023-03-07T05:30:21.679Z,15.60
2023-03-07T05:30:56.386Z,14.20
2023-03-07T05:31:28.737Z,14.65
2023-03-07T05:32:03.595Z,13.85
2023-03-07T05:32:35.881Z,16.65
2023-03-07T05:33:08.137Z,15.35
2023-03-07T05:33:43.777Z,15.57
2023-03-07T05:34:16.697Z,15.88
2023-03-07T05:34:49.124Z,15.63
2023-03-07T05:35:26.502Z,14.32
2023-03-07T05:36:01.224Z,15.38
2023-03-07T05:36:36.933Z,14.15
2023-03-07T05:37:09.539Z,14.25
2023-03-07T05:37:42.189Z,13.80
2023-03-07T05:38:16.922Z,14.15
2023-03-07T05:38:49.176Z,13.98
2023-03-07T05:39:21.298Z,12.85
2023-03-07T05:39:56.519Z,14.52
2023-03-07T05:40:29.000Z,15.93
2023-03-07T05:41:03.824Z,15.43
2023-03-07T05:41:36.105Z,15.50
2023-03-07T05:42:08.701Z,14.02
2023-03-07T05:42:44.856Z,15.48
2023-03-07T05:43:17.211Z,15.27
2023-03-07T05:43:50.042Z,14.18
2023-03-07T05:44:24.948Z,15.18
2023-03-07T05:44:57.265Z,14.60
2023-03-07T05:45:29.485Z,13.90
2023-03-07T05:46:07.115Z,15.88
2023-03-07T05:46:39.427Z,14.77
2023-03-07T05:47:11.682Z,15.75
2023-03-07T05:47:44.089Z,15.80
2023-03-07T05:48:23.196Z,15.30
2023-03-07T05:48:55.889Z,15.70
2023-03-07T05:49:28.047Z,14.88
2023-03-07T05:50:02.929Z,15.02
2023-03-07T05:50:38.923Z,15.23
2023-03-07T05:51:11.293Z,15.50
2023-03-07T05:51:46.620Z,15.40
2023-03-07T05:52:21.131Z,15.30
2023-03-07T05:52:53.289Z,14.02
2023-03-07T05:53:28.378Z,17.55
2023-03-07T05:54:00.983Z,15.80
2023-03-07T05:54:34.346Z,15.02
2023-03-07T05:55:37.250Z,16.38
2023-03-07T05:56:09.422Z,15.73
2023-03-07T05:56:42.547Z,17.00
2023-03-07T05:57:14.499Z,14.90
2023-03-07T05:57:49.062Z,15.77
2023-03-07T05:58:20.994Z,14.40
2023-03-07T05:58:54.064Z,17.38
2023-03-07T05:59:28.474Z,16.67
2023-03-07T06:00:00.375Z,16.52
2023-03-07T06:00:35.158Z,15.48
2023-03-07T06:01:06.951Z,15.10
2023-03-07T06:01:38.758Z,15.75
2023-03-07T06:02:13.278Z,15.25
2023-03-07T06:02:45.339Z,15.38
2023-03-07T06:03:19.563Z,15.20
2023-03-07T06:03:53.980Z,14.63
2023-03-07T06:04:25.946Z,15.98
2023-03-07T06:04:57.839Z,16.52
2023-03-07T06:05:32.388Z,15.32
2023-03-07T06:06:04.632Z,17.08
2023-03-07T06:06:36.454Z,19.23
2023-03-07T06:07:10.891Z,17.75
2023-03-07T06:07:42.783Z,17.08
2023-03-07T06:08:14.677Z,17.85
2023-03-07T06:08:49.138Z,17.63
2023-03-07T06:09:25.865Z,18.48
2023-03-07T06:09:59.520Z,14.75
2023-03-07T06:10:37.512Z,16.00
2023-03-07T06:11:10.013Z,15.60
2023-03-07T06:11:43.332Z,17.50
2023-03-07T06:12:18.017Z,17.02
2023-03-07T06:12:50.124Z,16.38
2023-03-07T06:13:24.300Z,16.80
2023-03-07T06:13:58.806Z,15.88
2023-03-07T06:14:30.786Z,15.95
2023-03-07T06:15:02.776Z,16.95
2023-03-07T06:15:37.417Z,16.40
2023-03-07T06:16:11.607Z,19.10
2023-03-07T06:16:46.152Z,19.52
2023-03-07T06:17:20.742Z,18.10
2023-03-07T06:17:52.893Z,20.15
2023-03-07T06:18:25.655Z,18.30
2023-03-07T06:19:00.100Z,16.40
2023-03-07T06:19:32.066Z,20.70
2023-03-07T06:20:04.299Z,17.70
2023-03-07T06:20:39.255Z,16.77
2023-03-07T06:21:13.162Z,18.83
2023-03-07T06:21:50.947Z,15.45
2023-03-07T06:22:24.216Z,18.35
2023-03-07T06:22:56.022Z,18.88
2023-03-07T06:23:30.924Z,18.42
2023-03-07T06:24:02.913Z,17.35
2023-03-07T06:24:35.049Z,17.02
2023-03-07T06:25:10.979Z,19.50
2023-03-07T06:25:45.636Z,18.58
2023-03-07T06:26:19.067Z,18.42
2023-03-07T06:26:57.817Z,18.70
2023-03-07T06:27:32.555Z,19.75
2023-03-07T06:28:04.749Z,19.55
2023-03-07T06:28:39.665Z,19.00
2023-03-07T06:29:11.589Z,18.73
2023-03-07T06:29:43.534Z,19.92
2023-03-07T06:30:18.036Z,19.90
2023-03-07T06:30:50.455Z,21.33
2023-03-07T06:31:22.410Z,19.70
2023-03-07T06:31:56.881Z,19.92
2023-03-07T06:32:28.875Z,22.42
2023-03-07T06:33:00.707Z,23.70
2023-03-07T06:33:35.310Z,21.42
2023-03-07T06:34:08.653Z,22.73
2023-03-07T06:34:40.518Z,23.20
2023-03-07T06:35:14.977Z,20.20
2023-03-07T06:35:47.351Z,20.70
2023-03-07T06:36:19.523Z,21.13
2023-03-07T06:36:57.747Z,21.55
2023-03-07T06:37:29.642Z,20.73
2023-03-07T06:38:04.412Z,21.67
2023-03-07T06:38:38.871Z,22.25
2023-03-07T06:39:10.772Z,20.58
2023-03-07T06:39:43.218Z,20.55
2023-03-07T06:40:17.631Z,20.95
2023-03-07T06:40:57.461Z,19.27
2023-03-07T06:41:29.572Z,20.98
2023-03-07T06:42:06.182Z,20.88
2023-03-07T06:42:38.475Z,19.27
2023-03-07T06:43:11.463Z,20.38
2023-03-07T06:43:46.068Z,21.42
2023-03-07T06:44:18.115Z,20.52
2023-03-07T06:44:50.052Z,19.98
2023-03-07T06:45:24.473Z,19.80
2023-03-07T06:45:56.540Z,20.73
2023-03-07T06:46:30.972Z,19.67
2023-03-07T06:47:07.117Z,20.45
2023-03-07T06:47:41.504Z,18.92
2023-03-07T06:48:18.113Z,20.42
2023-03-07T06:48:52.200Z,17.52
2023-03-07T06:49:28.043Z,20.02
2023-03-07T06:49:59.895Z,21.83
2023-03-07T06:50:35.356Z,23.70
2023-03-07T06:51:11.593Z,21.83
2023-03-07T06:51:46.777Z,21.40
2023-03-07T06:52:18.673Z,21.48
2023-03-07T06:52:53.078Z,20.48
2023-03-07T06:53:25.113Z,20.35
2023-03-07T06:53:57.083Z,21.27
2023-03-07T06:54:31.638Z,18.40
2023-03-07T06:55:03.866Z,22.15
2023-03-07T06:55:37.080Z,18.25
2023-03-07T06:56:14.172Z,20.38
2023-03-07T06:56:47.111Z,20.45
2023-03-07T06:57:25.442Z,19.60
2023-03-07T06:57:57.375Z,20.90
2023-03-07T06:58:29.214Z,20.42
2023-03-07T06:59:04.193Z,21.92
2023-03-07T06:59:36.113Z,19.80
2023-03-07T07:00:09.315Z,20.75
2023-03-07T07:00:43.716Z,17.58
2023-03-07T07:01:16.104Z,22.67
2023-03-07T07:01:48.966Z,19.50
2023-03-07T07:02:25.121Z,18.75
2023-03-07T07:02:57.499Z,18.15
2023-03-07T07:03:29.421Z,20.95
2023-03-07T07:04:04.540Z,17.73
2023-03-07T07:04:36.623Z,19.13
2023-03-07T07:05:08.905Z,16.30
2023-03-07T07:05:40.823Z,17.98
2023-03-07T07:06:15.236Z,16.88
2023-03-07T07:06:47.045Z,18.70
2023-03-07T07:07:18.974Z,17.17
2023-03-07T07:07:53.554Z,18.85
2023-03-07T07:08:25.434Z,18.00
2023-03-07T07:08:58.129Z,18.30
2023-03-07T07:09:36.523Z,21.00
2023-03-07T07:10:09.476Z,16.88
2023-03-07T07:10:41.290Z,16.75
2023-03-07T07:11:18.319Z,18.58
2023-03-07T07:11:50.611Z,18.52
2023-03-07T07:12:25.081Z,19.23
2023-03-07T07:12:57.710Z,20.60
2023-03-07T07:13:29.794Z,19.80
2023-03-07T07:14:04.240Z,18.98
2023-03-07T07:14:36.179Z,18.75
2023-03-07T07:15:09.786Z,17.50
2023-03-07T07:15:44.261Z,16.92
2023-03-07T07:16:17.460Z,19.27
2023-03-07T07:16:49.396Z,16.65
2023-03-07T07:17:23.904Z,18.35
2023-03-07T07:17:55.830Z,17.52
2023-03-07T07:18:28.654Z,17.40
2023-03-07T07:19:03.036Z,17.23
2023-03-07T07:19:35.113Z,17.92
2023-03-07T07:20:07.798Z,17.60
2023-03-07T07:20:42.396Z,20.65
2023-03-07T07:21:14.940Z,19.73
2023-03-07T07:21:46.772Z,21.40
2023-03-07T07:22:21.145Z,19.40
2023-03-07T07:22:55.144Z,18.73
2023-03-07T07:23:27.282Z,18.58
2023-03-07T07:24:02.032Z,18.27
2023-03-07T07:24:34.220Z,17.75